Time;durP1;ratioP1;P1;durP2;ratioP2;P2;SDS_P1;SDS_P2;PMS_P1;PMS_P2;Temp;Humidity;BMP_temperature;BMP_pressure;BME280_temperature;BME280_humidity;BME280_pressure;Samples;Min_cycle;Max_cycle;Signal;HPM_P1;HPM_P2
2021/09/15 00:02:22;;;;;;;21.38;19.05;;;21.80;99.90;;;22.37;78.82;101000.22;5113587;28;20048;-78
2021/09/15 00:04:52;;;;;;;23.05;19.55;;;21.80;99.90;;;22.37;78.91;100989.44;5113798;28;20046;-79
2021/09/15 00:07:20;;;;;;;25.08;20.17;;;21.90;99.90;;;22.21;78.87;100961.50;5095617;28;20048;-79
2021/09/15 00:09:48;;;;;;;25.13;21.88;;;21.90;99.90;;;22.26;79.20;100981.00;5113514;28;20122;-78
2021/09/15 00:12:17;;;;;;;23.15;20.00;;;21.80;99.90;;;22.24;79.33;100982.91;5113712;28;20043;-79
2021/09/15 00:14:45;;;;;;;25.95;22.67;;;21.80;99.90;;;21.82;79.51;100903.34;5095489;28;20074;-80
2021/09/15 00:17:14;;;;;;;22.95;20.45;;;21.80;99.90;;;22.26;79.75;100978.31;5113721;28;20067;-78
2021/09/15 00:19:42;;;;;;;27.23;24.15;;;21.80;99.90;;;22.28;79.67;100973.72;5114933;28;20473;-79
2021/09/15 00:22:12;;;;;;;28.35;25.20;;;21.80;99.90;;;22.16;79.89;100957.31;5117876;28;20043;-79
2021/09/15 00:24:40;;;;;;;31.63;26.30;;;21.80;99.90;;;22.24;80.08;100961.34;5117598;28;20074;-79
2021/09/15 00:27:09;;;;;;;30.77;27.48;;;21.80;99.90;;;22.18;80.42;100960.78;5099219;28;20067;-78
2021/09/15 00:29:38;;;;;;;32.72;27.48;;;21.70;99.90;;;22.16;80.76;100958.16;5117441;28;20043;-80
2021/09/15 00:32:07;;;;;;;33.22;28.42;;;21.70;99.90;;;22.17;80.81;100965.31;5099349;28;20516;-79
2021/09/15 00:34:36;;;;;;;34.15;28.25;;;21.70;99.90;;;22.01;80.94;100931.97;5117725;28;20052;-78
2021/09/15 00:37:09;;;;;;;35.13;28.85;;;21.70;99.90;;;22.13;80.71;100946.66;5117748;28;20537;-79
2021/09/15 00:39:39;;;;;;;34.45;29.80;;;21.70;99.90;;;22.29;80.55;100970.06;5117644;28;20067;-79
2021/09/15 00:42:08;;;;;;;41.70;32.33;;;21.80;99.90;;;22.32;80.29;100969.91;5118084;28;20435;-79
2021/09/15 00:44:37;;;;;;;36.95;32.95;;;21.80;99.90;;;22.36;80.28;100965.22;5117379;28;20135;-79
2021/09/15 00:47:06;;;;;;;38.75;32.63;;;21.90;99.90;;;22.35;80.04;100961.69;5117238;28;20063;-77
2021/09/15 00:49:34;;;;;;;44.22;34.60;;;21.90;99.90;;;22.33;80.24;100970.78;5117428;28;20047;-79
2021/09/15 00:52:04;;;;;;;40.42;36.08;;;21.90;99.90;;;22.33;80.33;100963.59;5099162;28;20438;-79
2021/09/15 00:54:33;;;;;;;42.00;36.40;;;21.80;99.90;;;22.36;80.40;100971.50;5117359;28;20051;-79
2021/09/15 00:57:03;;;;;;;43.90;37.38;;;21.90;99.90;;;22.36;80.22;100963.41;5098970;28;20042;-80
2021/09/15 00:59:33;;;;;;;41.25;36.67;;;21.90;99.90;;;22.24;80.23;100934.38;5117274;28;20424;-78
2021/09/15 01:02:01;;;;;;;44.85;38.10;;;21.90;99.90;;;22.33;80.03;100950.09;5098960;28;20520;-79
2021/09/15 01:04:30;;;;;;;43.67;38.97;;;21.90;99.90;;;22.35;79.92;100947.31;5116987;28;20044;-78
2021/09/15 01:07:03;;;;;;;45.25;39.63;;;21.90;99.90;;;22.36;80.14;100959.84;5099021;28;20073;-79
2021/09/15 01:09:37;;;;;;;48.30;38.97;;;21.90;99.90;;;22.35;80.25;100961.69;5098839;28;20101;-78
2021/09/15 01:12:13;;;;;;;45.38;40.40;;;21.90;99.90;;;22.33;80.16;100957.31;5117077;28;20123;-78
2021/09/15 01:15:19;;;;;;;46.22;41.15;;;21.80;99.90;;;22.32;80.33;100953.72;5116337;28;20124;-78
2021/09/15 01:18:21;;;;;;;44.03;39.20;;;21.80;99.90;;;22.28;80.50;100946.75;5116597;28;20048;-78
2021/09/15 01:21:10;;;;;;;45.67;39.15;;;21.80;99.90;;;22.28;80.62;100959.34;5098604;28;20043;-79
2021/09/15 01:23:57;;;;;;;47.95;40.55;;;21.80;99.90;;;22.28;80.37;100952.16;5116746;28;20053;-79
2021/09/15 01:26:41;;;;;;;47.70;40.22;;;21.80;99.90;;;22.23;80.60;100951.53;5098213;28;20048;-78
2021/09/15 01:29:36;;;;;;;45.28;39.60;;;21.80;99.90;;;22.21;80.66;100949.84;5098437;28;20439;-79
2021/09/15 01:32:34;;;;;;;44.35;38.92;;;21.80;99.90;;;22.20;80.76;100954.34;5108155;28;20056;-78
2021/09/15 01:35:04;;;;;;;50.90;40.63;;;21.70;99.90;;;22.15;80.66;100951.03;5098326;28;20043;-78
2021/09/15 01:37:37;;;;;;;47.45;40.03;;;21.70;99.90;;;22.10;80.71;100946.81;5098292;28;20039;-79
2021/09/15 01:40:08;;;;;;;48.70;40.40;;;21.60;99.90;;;22.14;80.46;100949.28;5098406;28;20415;-78
2021/09/15 01:42:38;;;;;;;39.28;35.10;;;21.70;99.90;;;21.99;79.46;100955.44;5098158;28;20047;-80
2021/09/15 01:45:12;;;;;;;34.38;30.77;;;21.60;99.90;;;21.84;78.80;100934.66;5097969;28;20408;-79
2021/09/15 01:47:42;;;;;;;34.97;31.15;;;21.50;99.90;;;21.73;79.22;100946.88;5094466;28;20051;-78
2021/09/15 01:50:11;;;;;;;32.17;28.80;;;21.30;99.90;;;21.52;79.47;100930.81;5096197;28;20044;-79
2021/09/15 01:52:42;;;;;;;34.05;30.58;;;21.20;99.90;;;21.53;80.21;100942.44;5095920;28;20068;-78
2021/09/15 01:55:22;;;;;;;38.72;34.53;;;21.10;99.90;;;21.56;80.61;100943.16;5094567;28;20489;-79
2021/09/15 01:57:55;;;;;;;43.05;35.85;;;21.10;99.90;;;21.58;80.98;100943.97;5094590;28;20549;-79
2021/09/15 02:00:55;;;;;;;;;;;21.10;99.90;;;21.60;80.96;100948.44;5094885;28;20044;-78
2021/09/15 02:03:42;;;;;;;41.22;36.45;;;21.20;99.90;;;21.52;81.41;100938.88;5095659;28;20388;-78
2021/09/15 02:06:21;;;;;;;46.03;39.60;;;21.00;99.90;;;21.50;82.19;100939.91;5094441;28;20105;-79
2021/09/15 02:08:54;;;;;;;41.78;37.25;;;21.00;99.90;;;21.50;82.54;100950.69;5094352;28;20072;-79
2021/09/15 02:11:39;;;;;;;43.28;38.25;;;21.00;99.90;;;21.43;82.81;100942.03;5094232;28;20105;-78
2021/09/15 02:14:09;;;;;;;42.40;37.70;;;20.90;99.90;;;21.44;83.26;100942.91;5094152;28;20044;-78
2021/09/15 02:16:46;;;;;;;36.13;32.33;;;21.00;99.90;;;21.36;83.51;100945.97;5094139;28;20051;-78
2021/09/15 02:19:15;;;;;;;34.63;31.00;;;21.00;99.90;;;21.11;83.27;100883.50;5093952;28;20048;-78
2021/09/15 02:22:07;;;;;;;35.40;31.70;;;21.00;99.90;;;21.52;82.95;100948.81;5095416;28;20099;-78
2021/09/15 02:24:42;;;;;;;36.83;30.88;;;21.00;99.90;;;21.50;82.85;100946.16;5095227;28;20410;-79
2021/09/15 02:27:36;;;;;;;33.03;29.17;;;21.10;99.90;;;21.56;82.63;100936.94;5092908;28;20056;-79
2021/09/15 02:30:08;;;;;;;37.70;32.53;;;21.10;99.90;;;21.61;82.38;100934.88;5094922;28;20547;-79
2021/09/15 02:32:44;;;;;;;42.00;33.70;;;21.20;99.90;;;21.63;82.37;100940.19;5093856;28;20640;-78
2021/09/15 02:35:38;;;;;;;43.03;36.97;;;21.20;99.90;;;21.70;81.96;100937.13;5082898;28;20056;-78
2021/09/15 02:38:30;;;;;;;40.45;35.03;;;21.20;99.90;;;21.71;81.92;100938.88;5086176;28;20091;-78
2021/09/15 02:41:23;;;;;;;46.70;37.58;;;21.30;99.90;;;21.75;81.77;100939.59;5093667;28;20451;-78
2021/09/15 02:44:14;;;;;;;44.40;37.58;;;21.30;99.90;;;21.75;81.91;100935.09;5085674;28;20084;-78
2021/09/15 02:47:01;;;;;;;40.95;35.80;;;21.30;99.90;;;21.71;81.82;100938.88;5103245;28;20053;-78
2021/09/15 02:49:48;;;;;;;43.72;37.55;;;21.30;99.90;;;21.68;81.88;100933.63;5114921;28;20092;-79
2021/09/15 02:52:35;;;;;;;44.28;39.42;;;21.30;99.90;;;21.68;81.95;100928.22;5115140;28;20050;-78
2021/09/15 02:55:30;;;;;;;44.50;38.78;;;21.20;99.90;;;21.71;82.01;100933.50;5109766;28;20052;-78
2021/09/15 02:58:15;;;;;;;42.97;36.83;;;21.20;99.90;;;21.52;82.21;100905.72;5096385;28;20047;-79
2021/09/15 03:00:49;;;;;;;43.00;38.22;;;21.20;99.90;;;21.66;82.20;100930.13;5096660;28;20134;-79
2021/09/15 03:03:38;;;;;;;42.40;37.30;;;21.20;99.90;;;21.61;82.32;100924.13;5096580;28;20051;-78
2021/09/15 03:06:14;;;;;;;43.28;37.20;;;21.20;99.90;;;21.53;82.01;100907.44;5096551;28;20085;-78
2021/09/15 03:09:01;;;;;;;31.83;27.65;;;21.20;99.90;;;21.49;81.83;100917.50;5114561;28;20059;-78
2021/09/15 03:11:29;;;;;;;22.48;20.08;;;21.10;99.90;;;21.47;80.13;100919.41;5096468;28;20043;-78
2021/09/15 03:13:59;;;;;;;28.75;17.67;;;21.10;99.90;;;20.87;80.56;100911.47;5114532;28;20056;-79
2021/09/15 03:16:30;;;;;;;42.20;22.52;;;20.50;99.90;;;20.37;82.74;100873.47;5096379;28;20134;-79
2021/09/15 03:19:02;;;;;;;26.90;23.92;;;20.10;99.90;;;20.56;84.12;100898.56;5096486;28;20052;-77
2021/09/15 03:21:35;;;;;;;26.20;23.50;;;20.10;99.90;;;20.65;84.05;100892.75;5096318;28;20071;-78
2021/09/15 03:24:04;;;;;;;24.60;22.10;;;20.20;99.90;;;20.72;83.96;100889.81;5096187;28;20078;-78
2021/09/15 03:26:32;;;;;;;25.90;23.20;;;20.20;99.90;;;20.56;83.94;100869.00;5114343;28;20058;-76
2021/09/15 03:29:02;;;;;;;28.60;25.35;;;20.20;99.90;;;20.75;83.96;100893.22;5096174;28;20044;-79
2021/09/15 03:31:33;;;;;;;29.65;26.60;;;20.30;99.90;;;20.57;84.11;100867.19;5096140;28;20398;-77
2021/09/15 03:34:01;;;;;;;35.78;31.90;;;20.30;99.90;;;20.78;84.28;100894.91;5114306;28;20051;-79
2021/09/15 03:36:30;;;;;;;33.38;29.45;;;20.30;99.90;;;20.79;84.23;100888.59;5095965;28;20043;-78
2021/09/15 03:38:59;;;;;;;34.03;28.08;;;20.30;99.90;;;20.81;83.81;100892.09;5095817;28;20051;-78
2021/09/15 03:41:28;;;;;;;31.27;27.83;;;20.30;99.90;;;20.68;83.61;100873.81;5095952;28;20045;-78
2021/09/15 03:43:56;;;;;;;33.92;27.50;;;20.30;99.90;;;20.76;83.49;100899.47;5095835;28;20057;-79
2021/09/15 03:46:26;;;;;;;30.92;27.55;;;20.30;99.90;;;20.74;83.62;100909.44;5113987;28;20100;-77
2021/09/15 03:48:55;;;;;;;89.93;26.57;;;20.30;99.90;;;20.64;84.35;100909.84;5114080;28;20048;-77
2021/09/15 03:51:25;;;;;;;56.20;24.67;;;20.30;99.90;;;20.57;84.44;100919.16;5095914;28;20384;-77
2021/09/15 03:53:54;;;;;;;62.90;25.38;;;20.20;99.90;;;20.46;84.38;100916.03;5094985;28;20050;-78
2021/09/15 03:56:22;;;;;;;18.92;15.50;;;20.10;99.90;;;20.35;84.95;100918.34;5095876;28;20070;-78
2021/09/15 03:58:53;;;;;;;18.05;16.45;;;20.00;99.90;;;20.43;85.05;100910.81;5095708;28;20039;-78
2021/09/15 04:01:21;;;;;;;30.33;27.23;;;20.00;99.90;;;20.52;84.95;100909.50;5114194;28;20046;-78
2021/09/15 04:03:52;;;;;;;31.60;28.08;;;20.10;99.90;;;20.61;84.71;100909.97;5095506;28;20048;-78
2021/09/15 04:06:21;;;;;;;;;;;20.20;99.90;;;20.67;84.65;100915.06;5096049;28;20439;-78
2021/09/15 04:08:49;;;;;;;31.00;27.70;;;20.30;99.90;;;20.64;84.47;100904.47;5095543;28;19920;-75
2021/09/15 04:11:18;;;;;;;25.52;23.02;;;20.30;99.90;;;20.62;84.24;100911.75;5095520;28;20051;-75
2021/09/15 04:13:48;;;;;;;21.27;18.85;;;20.20;99.90;;;20.47;83.06;100917.81;5095620;28;20130;-80
2021/09/15 04:16:17;;;;;;;23.45;20.95;;;20.10;99.90;;;20.51;82.70;100916.72;5095353;28;20146;-77
2021/09/15 04:18:46;;;;;;;21.63;18.50;;;20.00;99.90;;;20.30;82.93;100892.59;5095684;28;20052;-76
2021/09/15 04:21:15;;;;;;;16.05;14.48;;;20.00;99.90;;;20.33;82.82;100893.34;5113700;28;20117;-77
2021/09/15 04:23:54;;;;;;;16.77;15.17;;;19.90;99.90;;;20.40;82.88;100915.47;5113611;28;20075;-80
2021/09/15 04:31:58;;;;;;;36.38;27.40;;;19.90;99.90;;;20.43;83.83;100907.25;5095554;28;20047;-76
2021/09/15 04:34:26;;;;;;;33.10;29.27;;;19.90;99.90;;;20.47;84.69;100916.91;5095342;28;20085;-77
2021/09/15 04:37:00;;;;;;;38.47;31.25;;;20.00;99.90;;;20.51;85.16;100916.72;5095343;28;20055;-77
2021/09/15 04:39:32;;;;;;;40.33;32.22;;;20.00;99.90;;;20.56;85.28;100920.06;5095379;28;20101;-77
2021/09/15 04:42:02;;;;;;;41.83;33.97;;;20.10;99.90;;;20.66;85.12;100910.66;5095177;28;20097;-77
2021/09/15 04:44:30;;;;;;;50.92;39.35;;;20.20;99.90;;;20.78;84.70;100911.91;5113376;28;20039;-77
2021/09/15 04:46:59;;;;;;;49.40;37.20;;;20.30;99.90;;;20.83;84.58;100919.78;5094712;28;20090;-78
2021/09/15 04:49:28;;;;;;;27.73;24.73;;;20.30;99.90;;;20.69;83.58;100913.19;5095231;28;20554;-77
2021/09/15 04:51:57;;;;;;;28.02;25.02;;;20.30;99.90;;;20.69;83.15;100912.34;5113427;28;20119;-77
2021/09/15 04:54:27;;;;;;;39.42;28.90;;;20.30;99.90;;;20.79;83.22;100918.19;5095110;28;20048;-77
2021/09/15 04:56:56;;;;;;;43.30;35.58;;;20.30;99.90;;;20.88;83.21;100907.88;5095148;28;20083;-77
2021/09/15 04:59:26;;;;;;;51.42;41.10;;;20.40;99.90;;;20.99;83.38;100910.03;5094752;28;20032;-77
2021/09/15 05:01:57;;;;;;;52.88;42.10;;;20.50;99.90;;;21.08;83.76;100915.06;5095088;28;20476;-77
2021/09/15 05:04:25;;;;;;;50.78;40.53;;;20.70;99.90;;;21.10;83.83;100905.09;5094944;28;20130;-76
2021/09/15 05:07:17;;;;;;;52.78;42.08;;;20.60;99.90;;;21.15;83.72;100903.03;5107859;28;20051;-77
2021/09/15 05:09:48;;;;;;;55.75;41.30;;;20.70;99.90;;;21.16;84.17;100902.09;5098863;28;20134;-77
2021/09/15 05:12:17;;;;;;;56.33;43.45;;;20.70;99.90;;;21.22;84.29;100908.06;5116983;28;20047;-77
2021/09/15 05:14:47;;;;;;;54.58;43.80;;;20.70;99.90;;;21.17;84.60;100912.81;5098383;28;20039;-77
2021/09/15 05:17:15;;;;;;;55.58;44.38;;;20.70;99.90;;;21.12;84.88;100911.25;5116859;28;20045;-76
2021/09/15 05:19:44;;;;;;;54.45;44.42;;;20.60;99.90;;;21.03;85.47;100917.06;5098462;28;20031;-77
2021/09/15 05:22:12;;;;;;;55.08;45.80;;;20.60;99.90;;;21.14;85.33;100918.31;5116509;28;20109;-77
2021/09/15 05:24:41;;;;;;;49.95;44.03;;;20.70;99.90;;;21.20;84.80;100922.53;5098320;28;20100;-76
2021/09/15 05:27:11;;;;;;;53.40;45.30;;;20.70;99.90;;;21.14;84.73;100923.69;5098309;28;20051;-77
2021/09/15 05:29:39;;;;;;;53.08;45.42;;;20.70;99.90;;;21.19;84.74;100918.97;5098282;28;20055;-77
2021/09/15 05:32:09;;;;;;;59.22;48.05;;;20.70;99.90;;;21.21;84.27;100917.09;5098193;28;20067;-76
2021/09/15 05:34:37;;;;;;;56.92;45.90;;;20.80;99.90;;;21.26;83.68;100919.53;5098148;28;20162;-76
2021/09/15 05:37:06;;;;;;;49.40;41.67;;;20.80;99.90;;;21.17;83.14;100923.56;5116449;28;20071;-77
2021/09/15 05:39:34;;;;;;;46.72;37.20;;;20.80;99.90;;;21.20;82.87;100925.22;5098185;28;20054;-78
2021/09/15 05:42:04;;;;;;;44.00;38.08;;;20.80;99.90;;;21.11;82.54;100922.97;5098127;28;20416;-76
2021/09/15 05:44:34;;;;;;;47.45;39.13;;;20.70;99.90;;;21.09;82.77;100931.13;5097982;28;20043;-76
2021/09/15 05:47:02;;;;;;;44.97;38.90;;;20.70;99.90;;;21.12;82.63;100938.16;5097712;28;20512;-78
2021/09/15 05:49:33;;;;;;;47.70;38.28;;;20.70;99.90;;;21.12;82.34;100936.34;5097558;28;20035;-77
2021/09/15 05:52:03;;;;;;;43.35;37.60;;;20.60;99.90;;;21.12;82.18;100935.47;5097464;28;20134;-76
2021/09/15 05:54:31;;;;;;;44.67;37.80;;;20.70;99.90;;;21.18;82.03;100941.44;5097333;28;20396;-77
2021/09/15 05:57:00;;;;;;;44.67;37.10;;;20.70;99.90;;;21.21;81.74;100944.00;5116024;28;20043;-76
2021/09/15 05:59:28;;;;;;;46.25;35.10;;;20.70;99.90;;;21.19;81.62;100943.19;5097903;28;20067;-76
2021/09/15 06:01:58;;;;;;;43.30;36.08;;;20.70;99.90;;;21.16;82.19;100947.81;5097978;28;20054;-77
2021/09/15 06:04:27;;;;;;;44.15;36.95;;;20.70;99.90;;;21.20;82.40;100952.13;5097751;28;20073;-76
2021/09/15 06:07:02;;;;;;;48.40;38.83;;;20.70;99.90;;;21.29;82.02;100962.47;5097397;28;20036;-77
2021/09/15 06:09:30;;;;;;;47.00;39.08;;;20.80;99.90;;;21.37;82.17;100962.97;5097466;28;20051;-77
2021/09/15 06:11:59;;;;;;;45.38;38.45;;;20.90;99.90;;;21.47;82.14;100964.28;5097202;28;20044;-77
2021/09/15 06:14:29;;;;;;;41.50;35.85;;;21.00;99.90;;;21.65;81.77;100965.22;5097249;28;20454;-74
2021/09/15 06:16:59;;;;;;;46.60;37.60;;;21.20;99.90;;;21.87;81.22;100960.56;5096421;28;20051;-79
2021/09/15 06:19:27;;;;;;;42.53;35.33;;;21.40;99.90;;;22.13;80.67;100962.81;5115673;28;20044;-80
2021/09/15 06:22:28;;;;;;;46.65;37.47;;;21.70;99.90;;;22.42;79.42;100963.09;5094820;28;20376;-74
2021/09/15 06:25:09;;;;;;;42.10;35.88;;;22.00;99.90;;;22.67;78.74;100969.94;5097402;28;20047;-75
2021/09/15 06:27:41;;;;;;;39.17;34.88;;;22.30;99.90;;;22.45;78.04;100883.88;5097788;28;20055;-74
2021/09/15 06:30:12;;;;;;;38.97;33.78;;;22.50;99.90;;;23.14;77.40;100966.44;5098519;28;20049;-75
2021/09/15 06:32:42;;;;;;;36.22;32.03;;;22.80;99.90;;;23.40;76.56;100966.88;5115770;28;20084;-76
2021/09/15 06:35:12;;;;;;;34.93;30.47;;;23.00;99.90;;;23.42;75.15;100967.66;5097032;28;20051;-76
2021/09/15 06:37:42;;;;;;;29.85;26.15;;;23.10;99.90;;;23.47;73.70;100976.38;5115724;28;20342;-76
2021/09/15 06:40:11;;;;;;;28.50;25.50;;;23.10;99.90;;;23.62;73.89;100973.69;5096986;28;20043;-76
2021/09/15 06:42:39;;;;;;;28.30;25.23;;;23.20;99.90;;;23.74;73.25;100974.81;5114917;28;20077;-83
2021/09/15 06:45:09;;;;;;;25.05;22.50;;;23.30;99.90;;;23.64;72.90;100984.38;5114731;28;20536;-80
2021/09/15 06:47:45;;;;;;;23.88;20.60;;;23.20;99.90;;;23.37;72.21;100984.09;5115045;28;20048;-78
2021/09/15 06:50:15;;;;;;;21.42;18.30;;;23.10;99.90;;;23.20;72.45;100987.72;5114716;28;20035;-77
2021/09/15 06:52:44;;;;;;;17.90;15.90;;;22.80;99.90;;;23.13;71.70;100985.44;5115115;28;20092;-75
2021/09/15 06:55:13;;;;;;;19.83;17.80;;;22.70;99.90;;;23.04;72.12;100985.91;5114950;28;20116;-75
2021/09/15 06:57:42;;;;;;;16.65;14.95;;;22.60;99.90;;;22.77;71.96;100996.34;5115034;28;20048;-76
2021/09/15 07:00:13;;;;;;;18.00;16.00;;;22.40;99.90;;;22.52;73.10;100987.75;5114910;28;20071;-75
2021/09/15 07:02:43;;;;;;;17.45;15.60;;;22.10;99.90;;;22.42;73.67;100976.59;5114609;28;20043;-75
2021/09/15 07:05:11;;;;;;;16.00;14.45;;;22.00;99.90;;;22.29;73.78;100991.63;5115129;28;20047;-74
2021/09/15 07:07:40;;;;;;;14.95;13.57;;;21.90;99.90;;;22.11;73.61;100992.56;5114384;28;20045;-75
2021/09/15 07:10:10;;;;;;;16.35;14.85;;;21.70;99.90;;;22.18;73.48;100991.28;5096392;28;20043;-74
2021/09/15 07:12:39;;;;;;;;;;;21.80;99.90;;;22.02;73.20;100998.41;5114889;28;20040;-74
2021/09/15 07:15:10;;;;;;;13.13;11.93;;;21.70;99.90;;;21.97;73.11;101000.44;5114539;28;20364;-75
2021/09/15 07:17:44;;;;;;;15.90;13.93;;;21.60;99.90;;;21.79;73.79;100997.75;5114875;28;20247;-76
2021/09/15 07:20:15;;;;;;;15.98;13.90;;;21.40;99.90;;;21.65;74.88;100993.03;5114612;28;20063;-78
2021/09/15 07:22:43;;;;;;;13.07;11.80;;;21.30;99.90;;;21.51;75.22;100995.50;5114191;28;20040;-74
2021/09/15 07:25:12;;;;;;;12.25;10.90;;;21.10;99.90;;;21.34;75.61;100987.34;5114419;28;20032;-72
2021/09/15 07:27:41;;;;;;;11.60;10.43;;;20.90;99.90;;;21.38;75.57;100991.63;5113983;28;20040;-74
2021/09/15 07:30:12;;;;;;;12.07;10.70;;;20.90;99.90;;;21.36;75.38;100993.53;5113879;28;20118;-74
2021/09/15 07:32:41;;;;;;;11.88;10.68;;;21.00;99.90;;;21.35;75.65;100989.97;5114364;28;20047;-76
2021/09/15 07:35:13;;;;;;;12.27;9.32;;;21.00;99.90;;;21.26;75.67;100978.75;5114129;28;20039;-75
2021/09/15 07:37:42;;;;;;;11.82;10.63;;;20.90;99.90;;;21.25;75.50;100985.09;5114613;28;20485;-75
2021/09/15 07:40:12;;;;;;;11.38;10.27;;;20.90;99.90;;;21.34;75.55;100990.03;5114201;28;20067;-75
2021/09/15 07:42:40;;;;;;;11.95;10.63;;;21.00;99.90;;;20.94;75.65;100923.72;5114421;28;20043;-82
2021/09/15 07:45:12;;;;;;;13.68;11.70;;;21.00;99.90;;;21.40;75.91;100987.06;5113626;28;20076;-74
2021/09/15 07:47:41;;;;;;;12.20;9.93;;;21.00;99.90;;;21.32;75.46;100989.22;5113765;28;20067;-74
2021/09/15 07:50:12;;;;;;;14.13;10.63;;;20.90;99.90;;;21.14;75.96;100979.31;5113753;28;20126;-76
2021/09/15 07:52:41;;;;;;;12.93;10.43;;;20.80;99.90;;;21.26;75.96;100978.75;5095799;28;20100;-77
2021/09/15 07:55:12;;;;;;;12.60;9.50;;;20.90;99.90;;;21.24;75.76;100981.53;5114038;28;20385;-76
2021/09/15 07:57:43;;;;;;;12.85;9.75;;;20.80;99.90;;;21.28;75.53;100977.75;5113864;28;20048;-78
2021/09/15 08:00:13;;;;;;;11.80;9.82;;;20.90;99.90;;;21.38;75.08;100978.19;5113674;28;20093;-78
2021/09/15 08:02:41;;;;;;;12.35;9.05;;;21.00;99.90;;;21.48;75.00;100979.50;5113658;28;20048;-72
2021/09/15 08:05:11;;;;;;;14.05;7.80;;;21.10;99.90;;;21.46;74.36;100974.19;5113919;28;20075;-70
2021/09/15 08:07:40;;;;;;;5.50;3.55;;;21.10;99.90;;;21.48;73.75;100966.94;5113798;28;20405;-72
2021/09/15 08:10:10;;;;;;;6.78;6.30;;;21.20;99.90;;;21.58;73.53;100965.50;5113494;28;20446;-71
2021/09/15 08:12:39;;;;;;;13.32;8.00;;;21.30;99.90;;;21.69;73.16;100966.81;5114098;28;20051;-70
2021/09/15 08:15:10;;;;;;;;;;;21.40;99.90;;;21.56;73.07;100928.84;5114046;28;20078;-71
2021/09/15 08:17:39;;;;;;;2.85;2.65;;;21.50;99.90;;;21.73;72.85;100960.34;5113613;28;20331;-69
2021/09/15 08:20:09;;;;;;;3.30;3.10;;;21.40;99.90;;;21.63;73.01;100964.41;5113670;28;20036;-72
2021/09/15 08:22:41;;;;;;;5.53;4.72;;;21.40;99.90;;;21.51;73.11;100956.00;5113744;28;20104;-71
2021/09/15 08:25:09;;;;;;;2.20;2.10;;;21.30;99.90;;;21.42;73.33;100961.81;5113585;28;20112;-71
2021/09/15 08:27:38;;;;;;;2.42;2.33;;;21.20;99.90;;;21.55;73.58;100962.97;5113216;28;20321;-71
2021/09/15 08:30:09;;;;;;;2.63;2.53;;;21.20;99.90;;;21.58;74.25;100958.41;5095523;28;20519;-71
2021/09/15 08:32:37;;;;;;;2.40;2.30;;;21.30;99.90;;;21.47;73.97;100957.09;5113066;28;20037;-70
2021/09/15 08:35:08;;;;;;;2.30;2.20;;;21.20;99.90;;;21.44;73.64;100956.38;5113510;28;20506;-71
2021/09/15 08:37:38;;;;;;;2.65;2.55;;;21.20;99.90;;;21.27;73.83;100961.69;5095274;28;20484;-70
2021/09/15 08:40:10;;;;;;;;;;;21.10;99.90;;;21.21;74.28;100965.53;5095875;28;20048;-72
2021/09/15 08:42:38;;;;;;;2.42;2.33;;;20.90;99.90;;;21.21;74.52;100973.59;5116219;28;19934;-70
2021/09/15 08:45:12;;;;;;;2.58;2.47;;;21.00;99.90;;;21.32;74.79;100979.34;5117404;28;20520;-70
2021/09/15 08:47:43;;;;;;;9.20;2.75;;;21.00;99.90;;;21.33;74.83;100986.47;5117543;28;20481;-71
2021/09/15 08:50:14;;;;;;;2.85;2.75;;;21.00;99.90;;;21.26;74.51;100987.69;5099216;28;20046;-71
2021/09/15 08:52:43;;;;;;;2.47;2.38;;;21.00;99.90;;;21.24;75.17;100988.72;5117205;28;20044;-71
2021/09/15 08:55:13;;;;;;;2.80;2.70;;;21.00;99.90;;;21.22;75.17;100990.59;5117574;28;20046;-70
2021/09/15 08:57:42;;;;;;;2.30;2.20;;;20.90;99.90;;;20.65;74.82;100890.06;5116838;28;20048;-70
2021/09/15 09:00:13;;;;;;;2.53;2.42;;;21.00;99.90;;;21.04;74.97;100983.38;5117351;28;20031;-70
2021/09/15 09:02:45;;;;;;;2.70;2.60;;;20.80;99.90;;;21.08;75.19;100985.00;5098956;28;20052;-70
2021/09/15 09:05:14;;;;;;;2.72;2.63;;;20.80;99.90;;;20.89;75.00;100960.69;5117121;28;20088;-71
2021/09/15 09:07:43;;;;;;;2.50;2.40;;;20.70;99.90;;;21.06;75.46;100982.34;5098675;28;20043;-71
2021/09/15 09:10:16;;;;;;;2.83;2.72;;;20.80;99.90;;;21.16;75.17;100985.50;5116822;28;20370;-71
2021/09/15 09:12:47;;;;;;;2.67;2.58;;;20.90;99.90;;;21.14;75.12;100990.06;5098944;28;20668;-71
2021/09/15 09:15:21;;;;;;;2.40;2.30;;;20.80;99.90;;;21.16;74.66;100982.81;5117038;28;20139;-71
2021/09/15 09:17:56;;;;;;;2.88;2.78;;;20.90;99.90;;;21.27;75.01;100994.81;5098618;28;20051;-71
2021/09/15 09:20:28;;;;;;;2.50;2.40;;;21.00;99.90;;;21.40;75.13;100989.75;5116435;28;20051;-72
2021/09/15 09:23:04;;;;;;;2.38;2.28;;;21.10;99.90;;;21.50;74.76;100999.16;5116944;28;20043;-72
2021/09/15 09:25:38;;;;;;;2.70;2.60;;;21.20;99.90;;;21.58;74.87;100997.81;5116567;28;20122;-70
2021/09/15 09:28:28;;;;;;;2.78;2.67;;;21.30;99.90;;;21.58;74.29;101000.50;5116302;28;20401;-69
2021/09/15 09:30:58;;;;;;;2.88;2.78;;;21.30;99.90;;;21.61;73.94;100990.53;5098596;28;20051;-75
2021/09/15 09:33:28;;;;;;;;;;;21.40;99.90;;;21.75;73.34;100997.03;5098775;28;20489;-74
2021/09/15 09:36:01;;;;;;;;;;;21.40;99.90;;;21.72;73.55;100988.22;5098768;28;19925;-75
2021/09/15 09:38:33;;;;;;;2.45;2.35;;;21.50;99.90;;;21.75;72.46;100996.16;5116191;28;19919;-80
2021/09/15 09:41:08;;;;;;;2.65;2.55;;;21.50;99.90;;;21.78;71.75;101004.06;5116723;28;20047;-73
2021/09/15 09:43:39;;;;;;;5.47;2.13;;;21.50;99.90;;;21.50;71.58;100985.69;5116459;28;20048;-77
2021/09/15 09:46:10;;;;;;;3.05;2.85;;;21.40;99.90;;;21.61;71.06;101004.88;5116683;28;20106;-72
2021/09/15 09:48:41;;;;;;;2.85;2.75;;;21.40;99.90;;;21.63;71.86;101010.19;5115979;28;20085;-73
2021/09/15 09:51:32;;;;;;;2.90;2.80;;;21.40;99.90;;;21.66;72.21;101016.28;5115797;28;20444;-73
2021/09/15 09:54:19;;;;;;;2.67;2.58;;;21.40;99.90;;;21.69;72.37;101020.69;5115417;28;20403;-74
2021/09/15 09:56:52;;;;;;;2.80;2.70;;;21.40;99.90;;;21.61;72.57;101020.16;5116016;28;20460;-72
2021/09/15 09:59:25;;;;;;;2.40;2.30;;;21.40;99.90;;;21.58;72.43;101008.59;5116209;28;20401;-73
2021/09/15 10:01:57;;;;;;;3.00;2.90;;;21.40;99.90;;;21.61;72.56;101018.34;5116042;28;20074;-71
2021/09/15 10:04:27;;;;;;;2.38;2.28;;;21.40;99.90;;;21.19;72.68;100916.28;5116058;28;20043;-78
2021/09/15 10:06:57;;;;;;;2.50;2.40;;;21.60;99.90;;;21.87;73.03;101028.81;5115984;28;20040;-74
2021/09/15 10:09:26;;;;;;;2.38;2.28;;;21.70;99.90;;;22.02;72.48;101025.34;5115564;28;20549;-74
2021/09/15 10:11:57;;;;;;;2.33;2.22;;;21.80;99.90;;;22.12;72.41;101009.59;5097526;28;20052;-70
2021/09/15 10:14:28;;;;;;;2.90;2.80;;;21.90;99.90;;;22.20;71.77;100997.47;5115741;28;20039;-77
2021/09/15 10:17:02;;;;;;;2.20;2.10;;;22.00;99.90;;;22.33;71.51;101009.41;5115582;28;20040;-71
2021/09/15 10:19:32;;;;;;;18.63;12.65;;;22.10;99.90;;;22.47;71.81;101005.13;5115741;28;20051;-74
2021/09/15 10:22:04;;;;;;;8.05;6.35;;;22.20;99.90;;;22.34;71.01;101003.06;5115470;28;20548;-81
2021/09/15 10:24:55;;;;;;;2.00;1.90;;;22.10;99.90;;;22.33;71.07;100987.84;5115838;28;20048;-74
2021/09/15 10:27:27;;;;;;;2.47;2.38;;;22.10;99.90;;;22.34;71.50;100996.78;5115295;28;20047;-74
2021/09/15 10:30:07;;;;;;;2.20;2.10;;;22.10;99.90;;;22.23;72.35;101001.84;5097226;28;20427;-76
2021/09/15 10:32:37;;;;;;;2.53;2.42;;;22.00;99.90;;;22.29;72.88;100996.16;5115503;28;20449;-73
2021/09/15 10:35:07;;;;;;;2.40;2.30;;;22.10;99.90;;;22.04;73.45;101007.28;5115232;28;20442;-74